Time;durP1;ratioP1;P1;durP2;ratioP2;P2;SDS_P1;SDS_P2;PMS_P1;PMS_P2;Temp;Humidity;BMP_temperature;BMP_pressure;BME280_temperature;BME280_humidity;BME280_pressure;Samples;Min_cycle;Max_cycle;Signal;HPM_P1;HPM_P2
2022/03/04 00:01:17;;;;;;;;;;;0.40;96.50;;;-0.36;63.63;97258.69;4977550;28;20250;-87
2022/03/04 00:03:43;;;;;;;;;;;0.50;96.40;;;-0.40;64.03;97253.47;4998024;28;19948;-83
2022/03/04 00:06:09;;;;;;;;;;;0.50;96.40;;;-0.55;64.49;97226.66;4981055;28;19967;-88
2022/03/04 00:08:34;;;;;;;;;;;0.50;96.50;;;-0.47;64.19;97248.28;5000524;28;20007;-85
2022/03/04 00:11:02;;;;;;;;;;;0.50;96.50;;;-0.55;64.87;97235.31;4993523;28;20288;-86
2022/03/04 00:13:29;;;;;;;;;;;0.50;96.60;;;-0.54;65.18;97244.78;4979797;28;20186;-83
2022/03/04 00:15:56;;;;;;;;;;;0.40;96.80;;;-0.51;65.39;97257.75;5000301;28;19943;-83
2022/03/04 00:18:21;;;;;;;;;;;0.40;96.90;;;-0.60;66.16;97250.81;4982257;28;20012;-82
2022/03/04 00:20:47;;;;;;;;;;;0.40;97.20;;;-0.56;65.60;97253.41;5003359;28;19924;-87
2022/03/04 00:23:14;;;;;;;;;;;0.30;97.00;;;-0.66;66.47;97243.03;4981022;28;20067;-85
2022/03/04 00:25:39;;;;;;;;;;;0.30;97.20;;;-0.65;67.59;97257.69;4978569;28;20309;-83
2022/03/04 00:28:05;;;;;;;;;;;0.30;97.70;;;-0.84;68.56;97230.00;5003819;28;19918;-82
2022/03/04 00:30:31;;;;;;;;;;;0.20;98.10;;;-0.79;69.28;97257.63;5002121;28;20280;-87
2022/03/04 00:32:57;;;;;;;;;;;0.10;98.70;;;-0.97;70.32;97229.03;5003297;28;19913;-83
2022/03/04 00:35:24;;;;;;;;;;;0.10;98.70;;;-0.97;70.44;97244.56;4995822;28;19921;-83
2022/03/04 00:37:49;;;;;;;;;;;0.10;98.80;;;-0.89;70.72;97262.75;4994965;28;20027;-87
2022/03/04 00:40:15;;;;;;;;;;;0.00;98.90;;;-0.93;70.89;97259.28;4964890;28;20188;-84
2022/03/04 00:42:41;;;;;;;;;;;0.00;98.90;;;-1.01;70.81;97258.34;4983864;28;20386;-85
2022/03/04 00:45:07;;;;;;;;;;;0.00;98.90;;;-1.17;70.39;97231.50;4981315;28;19928;-83
2022/03/04 00:47:33;;;;;;;;;;;-0.10;98.70;;;-0.98;69.14;97274.78;4962456;28;19967;-84
2022/03/04 00:50:01;;;;;;;;;;;-0.10;98.40;;;-1.06;68.89;97267.81;4994440;28;19913;-84
2022/03/04 00:52:27;;;;;;;;;;;-0.10;98.20;;;-1.01;68.91;97269.56;4975691;28;20432;-83
2022/03/04 00:54:52;;;;;;;;;;;-0.20;98.20;;;-1.11;70.00;97252.25;4979074;28;19929;-83
2022/03/04 00:57:18;;;;;;;;;;;-0.20;98.70;;;-1.25;70.30;97239.22;4978948;28;19925;-85
2022/03/04 00:59:44;;;;;;;;;;;-0.20;98.90;;;-1.45;69.63;97214.94;4992655;28;20359;-84
2022/03/04 01:02:09;;;;;;;;;;;-0.20;98.60;;;-1.13;69.26;97256.56;4975765;28;20036;-85
2022/03/04 01:04:35;;;;;;;;;;;-0.20;98.60;;;-1.37;69.80;97229.63;4994844;28;19924;-86
2022/03/04 01:07:00;;;;;;;;;;;-0.30;98.70;;;-1.16;69.90;97261.72;4978366;28;19968;-86
2022/03/04 01:09:26;;;;;;;;;;;-0.30;98.90;;;-1.21;70.87;97265.97;4979087;28;19924;-86
2022/03/04 01:11:52;;;;;;;;;;;-0.40;99.20;;;-1.43;70.75;97246.84;4983043;28;19921;-83
2022/03/04 01:14:17;;;;;;;;;;;-0.40;99.10;;;-1.35;70.58;97263.28;4988033;28;19956;-82
2022/03/04 01:16:43;;;;;;;;;;;-0.50;99.00;;;-1.65;70.47;97207.00;4992820;28;19920;-82
2022/03/04 01:19:09;;;;;;;;;;;-0.50;99.10;;;-1.45;70.17;97246.84;4994474;28;19925;-84
2022/03/04 01:21:34;;;;;;;;;;;-0.50;99.10;;;-1.49;70.05;97239.03;4976410;28;19987;-83
2022/03/04 01:24:00;;;;;;;;;;;-0.50;99.00;;;-1.49;69.51;97255.44;4990418;28;19925;-81
2022/03/04 01:26:26;;;;;;;;;;;-0.50;98.80;;;-1.46;70.25;97254.59;4972684;28;20047;-83
2022/03/04 01:28:51;;;;;;;;;;;-0.50;99.10;;;-1.74;70.86;97218.16;4974101;28;19917;-85
2022/03/04 01:31:17;;;;;;;;;;;-0.60;99.30;;;-1.56;70.76;97254.50;4985822;28;20314;-82
2022/03/04 01:33:42;;;;;;;;;;;-0.60;99.20;;;-1.74;70.55;97229.34;5004883;28;20432;-82
2022/03/04 01:36:08;;;;;;;;;;;-0.70;99.20;;;-1.68;70.86;97240.59;4977212;28;20175;-83
2022/03/04 01:38:34;;;;;;;;;;;-0.70;99.30;;;-1.71;71.67;97254.38;4993896;28;20023;-82
2022/03/04 01:41:00;;;;;;;;;;;-0.80;99.50;;;-1.73;72.08;97254.34;4992631;28;20279;-82
2022/03/04 01:43:25;;;;;;;;;;;-0.80;99.70;;;-1.75;71.69;97242.28;4977497;28;20012;-84
2022/03/04 01:45:52;;;;;;;;;;;-0.80;99.70;;;-1.78;72.73;97242.22;4996769;28;20397;-83
2022/03/04 01:48:20;;;;;;;;;;;-0.90;99.90;;;-1.76;73.86;97246.59;4973705;28;19917;-84
2022/03/04 01:50:50;;;;;;;;;;;-0.90;99.90;;;-1.88;74.53;97228.38;4975387;28;20305;-84
2022/03/04 01:53:16;;;;;;;;;;;-0.90;99.90;;;-1.82;75.41;97243.06;4992780;28;20285;-84
2022/03/04 01:55:42;;;;;;;;;;;-0.90;99.90;;;-1.80;75.97;97249.09;4978091;28;19972;-84
2022/03/04 01:58:08;;;;;;;;;;;-0.90;99.90;;;-1.89;75.66;97239.53;4983560;28;20009;-83
2022/03/04 02:00:34;;;;;;;;;;;-0.90;99.90;;;-1.87;76.10;97250.75;4980822;28;19950;-84
2022/03/04 02:03:00;;;;;;;;;;;-0.90;99.90;;;-1.92;77.20;97247.25;4981471;28;19924;-85
2022/03/04 02:05:26;;;;;;;;;;;-0.90;99.90;;;-1.88;77.32;97251.63;5000834;28;20325;-86
2022/03/04 02:07:52;;;;;;;;;;;-1.00;99.90;;;-1.90;77.10;97248.16;5022371;23;19932;-45
2022/03/04 02:10:17;;;;;;;;;;;-1.00;99.90;;;-1.98;77.79;97242.91;5011448;28;19917;-48
2022/03/04 02:12:43;;;;;;;;;;;-1.00;99.90;;;-1.94;77.51;97246.38;5011412;28;20418;-45
2022/03/04 02:15:09;;;;;;;;;;;-1.00;99.90;;;-1.96;76.79;97245.50;5010265;28;20043;-48
2022/03/04 02:17:36;;;;;;;;;;;-1.00;99.90;;;-1.95;77.03;97239.50;5002005;28;20374;-43
2022/03/04 02:20:03;;;;;;;;;;;-1.00;99.90;;;-2.06;77.57;97233.34;5006967;28;20429;-44
2022/03/04 02:22:30;;;;;;;;;;;-1.00;99.90;;;-1.99;77.49;97238.59;5007960;28;19924;-45
2022/03/04 02:24:55;;;;;;;;;;;-1.00;99.90;;;-2.00;78.06;97230.84;5003474;28;19921;-45
2022/03/04 02:27:21;;;;;;;;;;;-1.00;99.90;;;-2.04;78.52;97229.06;4997252;28;19914;-45
2022/03/04 02:29:49;;;;;;;;;;;-1.00;99.90;;;-2.02;78.95;97232.53;5006936;28;20423;-42
2022/03/04 02:32:14;;;;;;;;;;;-1.10;99.90;;;-2.05;79.32;97229.91;5002135;28;19963;-46
2022/03/04 02:34:40;;;;;;;;;;;-1.10;99.90;;;-2.04;79.42;97227.34;5002190;28;20989;-44
2022/03/04 02:37:06;;;;;;;;;;;-1.10;99.90;;;-2.05;79.58;97230.78;4999842;28;19965;-46
2022/03/04 02:39:32;;;;;;;;;;;-1.10;99.90;;;-2.09;79.01;97231.59;5005120;28;20673;-46
2022/03/04 02:41:58;;;;;;;;;;;-1.20;99.90;;;-2.12;79.38;97240.19;5003588;28;19921;-46
2022/03/04 02:44:23;;;;;;;;;;;-1.20;99.90;;;-2.31;79.67;97210.72;5001349;28;19924;-46
2022/03/04 02:46:49;;;;;;;;;;;-1.30;99.90;;;-2.27;79.61;97231.41;5004930;28;19925;-46
2022/03/04 02:49:14;;;;;;;;;;;-1.30;99.90;;;-2.31;78.86;97228.78;5005168;28;19952;-46
2022/03/04 02:51:40;;;;;;;;;;;-1.40;99.90;;;-2.40;78.96;97223.53;5000427;28;19920;-43
2022/03/04 02:54:06;;;;;;;;;;;-1.40;99.90;;;-2.35;78.91;97236.47;5001308;28;19963;-44
2022/03/04 02:56:31;;;;;;;;;;;-1.50;99.90;;;-2.39;79.17;97227.81;5005541;28;20344;-46
2022/03/04 02:58:57;;;;;;;;;;;-1.50;99.90;;;-2.39;78.74;97232.13;5006845;28;19925;-43
2022/03/04 03:01:24;;;;;;;;;;;-1.50;99.90;;;-2.42;78.44;97226.94;5001567;28;19944;-46
2022/03/04 03:03:50;;;;;;;;;;;-1.50;99.90;;;-2.33;78.72;97237.38;5003261;28;19920;-46
2022/03/04 03:06:16;;;;;;;;;;;-1.50;99.90;;;-2.38;79.38;97239.03;4997669;28;20157;-46
2022/03/04 03:08:41;;;;;;;;;;;-1.50;99.90;;;-2.38;78.28;97239.03;5000672;28;20039;-46
2022/03/04 03:11:07;;;;;;;;;;;-1.50;99.90;;;-2.52;78.06;97211.31;4999921;28;19963;-46
2022/03/04 03:13:33;;;;;;;;;;;-1.50;99.90;;;-2.44;77.87;97233.78;4997727;28;20047;-47
2022/03/04 03:15:58;;;;;;;;;;;-1.50;99.90;;;-2.43;78.22;97235.53;4999453;28;20535;-45
2022/03/04 03:18:24;;;;;;;;;;;-1.50;99.90;;;-2.45;78.50;97238.09;4996014;28;20382;-46
2022/03/04 03:20:50;;;;;;;;;;;-1.60;99.90;;;-2.48;78.54;97240.63;4996237;28;20003;-45
2022/03/04 03:23:18;;;;;;;;;;;-1.60;99.90;;;-2.48;78.27;97235.47;4998896;28;20019;-46
2022/03/04 03:25:43;;;;;;;;;;;-1.60;99.90;;;-2.45;78.09;97229.50;5003916;28;19941;-47
2022/03/04 03:28:09;;;;;;;;;;;-1.60;99.90;;;-2.46;78.22;97232.91;4996102;28;19913;-46
2022/03/04 03:30:34;;;;;;;;;;;-1.60;99.90;;;-2.52;78.74;97221.66;5001235;28;19968;-46
2022/03/04 03:33:00;;;;;;;;;;;-1.60;99.90;;;-2.47;78.56;97236.38;5003002;28;19917;-43
2022/03/04 03:35:27;;;;;;;;;;;-1.60;99.90;;;-2.48;78.55;97235.47;5002285;28;20534;-44
2022/03/04 03:37:53;;;;;;;;;;;-1.60;99.90;;;-2.58;78.12;97229.34;4996501;28;20027;-45
2022/03/04 03:40:18;;;;;;;;;;;-1.60;99.90;;;-2.57;77.96;97238.81;5002912;28;19922;-49
2022/03/04 03:42:44;;;;;;;;;;;-1.70;99.90;;;-2.67;79.09;97226.66;4984025;28;19921;-47
2022/03/04 03:45:12;;;;;;;;;;;-1.70;99.90;;;-2.70;79.31;97240.38;4999753;28;20271;-46
2022/03/04 03:47:39;;;;;;;;;;;-1.80;99.90;;;-2.74;79.58;97241.19;4994196;28;19967;-50
2022/03/04 03:50:06;;;;;;;;;;;-1.80;99.90;;;-2.78;79.47;97242.00;4997979;28;19913;-49
2022/03/04 03:52:32;;;;;;;;;;;-1.90;99.90;;;-2.84;79.01;97241.91;4993621;28;19925;-47
2022/03/04 03:54:57;;;;;;;;;;;-1.90;99.90;;;-2.77;78.98;97250.63;5000359;28;19927;-49
2022/03/04 03:57:23;;;;;;;;;;;-1.90;99.90;;;-2.79;79.13;97239.41;4978752;28;19971;-47
2022/03/04 03:59:49;;;;;;;;;;;-1.90;99.90;;;-2.79;79.08;97258.34;4996266;28;19917;-45
2022/03/04 04:02:14;;;;;;;;;;;-1.90;99.90;;;-2.82;79.96;97254.84;4995926;28;19921;-46
2022/03/04 04:04:41;;;;;;;;;;;-1.90;99.90;;;-2.89;79.82;97257.34;4996951;28;19921;-47
2022/03/04 04:07:09;;;;;;;;;;;-1.90;99.90;;;-2.80;79.88;97263.47;4996340;28;19967;-47
2022/03/04 04:09:35;;;;;;;;;;;-1.90;99.90;;;-2.81;79.88;97266.91;4994082;28;19972;-47
2022/03/04 04:12:01;;;;;;;;;;;-1.90;99.90;;;-2.84;80.11;97265.16;5001899;28;19916;-45
2022/03/04 04:14:27;;;;;;;;;;;-1.90;99.90;;;-2.80;79.89;97264.34;5006382;28;19940;-47
2022/03/04 04:16:53;;;;;;;;;;;-1.90;99.90;;;-2.78;80.19;97262.66;4999453;28;19972;-47
2022/03/04 04:19:19;;;;;;;;;;;-1.90;99.90;;;-2.80;80.10;97261.78;5000961;28;19921;-45
2022/03/04 04:21:45;;;;;;;;;;;-1.90;99.90;;;-2.79;80.46;97265.22;5002187;28;19939;-48
2022/03/04 04:24:10;;;;;;;;;;;-2.00;99.90;;;-2.85;80.80;97257.38;5004309;28;20015;-49
2022/03/04 04:26:36;;;;;;;;;;;-1.90;99.90;;;-2.78;80.23;97265.25;5004396;28;20283;-45
2022/03/04 04:29:03;;;;;;;;;;;-1.90;99.90;;;-2.80;79.93;97263.47;5003969;28;20372;-48
2022/03/04 04:31:30;;;;;;;;;;;-1.90;99.90;;;-2.89;79.65;97247.03;5000698;28;19924;-48
2022/03/04 04:33:55;;;;;;;;;;;-1.90;99.90;;;-2.86;80.79;97261.69;4998385;28;19924;-47
2022/03/04 04:36:21;;;;;;;;;;;-2.00;99.90;;;-2.86;80.75;97266.84;4996019;28;21032;-47
2022/03/04 04:38:47;;;;;;;;;;;-2.00;99.90;;;-2.93;81.38;97265.03;4993983;28;20016;-46
2022/03/04 04:41:12;;;;;;;;;;;-2.00;99.90;;;-2.93;82.57;97273.63;4998169;28;20450;-47
2022/03/04 04:43:38;;;;;;;;;;;-2.00;99.90;;;-3.02;83.60;97254.56;5001994;28;19968;-44
2022/03/04 04:46:04;;;;;;;;;;;-2.00;99.90;;;-3.01;84.33;97262.34;4998756;28;19921;-47
2022/03/04 04:48:31;;;;;;;;;;;-2.00;99.90;;;-2.97;84.61;97269.28;4997350;28;19975;-47
2022/03/04 04:50:59;;;;;;;;;;;-2.00;99.90;;;-2.98;85.34;97264.09;4996737;28;19917;-47
2022/03/04 04:53:26;;;;;;;;;;;-2.00;99.90;;;-2.99;85.78;97273.53;5004255;28;19920;-45
2022/03/04 04:55:51;;;;;;;;;;;-2.00;99.90;;;-3.02;85.29;97276.06;4986791;28;20245;-44
2022/03/04 04:58:17;;;;;;;;;;;-2.10;99.90;;;-3.05;85.08;97275.16;4978849;28;20011;-46
2022/03/04 05:00:43;;;;;;;;;;;-2.10;99.90;;;-3.13;85.68;97268.19;4995682;28;19925;-46
2022/03/04 05:03:08;;;;;;;;;;;-2.10;99.90;;;-3.11;86.04;97281.09;5001526;28;19922;-44
2022/03/04 05:05:35;;;;;;;;;;;-2.10;99.90;;;-3.11;85.83;97284.53;4992676;28;19913;-44
2022/03/04 05:08:01;;;;;;;;;;;-2.20;99.90;;;-3.11;86.15;97299.16;4998008;28;20022;-44
2022/03/04 05:10:26;;;;;;;;;;;-2.20;99.90;;;-3.18;86.39;97285.28;5003400;28;20003;-47
2022/03/04 05:12:52;;;;;;;;;;;-2.20;99.90;;;-3.16;86.24;97298.22;4997463;28;20415;-46
2022/03/04 05:15:18;;;;;;;;;;;-2.10;99.90;;;-3.16;86.16;97299.13;4999279;28;19925;-45
2022/03/04 05:17:44;;;;;;;;;;;-2.20;99.90;;;-3.18;86.64;97305.06;4998280;28;19972;-47
2022/03/04 05:20:10;;;;;;;;;;;-2.20;99.90;;;-3.27;86.64;97293.78;4994411;28;19921;-47
2022/03/04 05:22:36;;;;;;;;;;;-2.20;99.90;;;-3.27;86.85;97286.06;4999008;28;19921;-45
2022/03/04 05:25:02;;;;;;;;;;;-2.20;99.90;;;-3.14;86.58;97302.56;4999139;28;19913;-47
2022/03/04 05:27:28;;;;;;;;;;;-2.10;99.90;;;-3.13;86.71;97299.13;5001839;28;19922;-47
2022/03/04 05:29:53;;;;;;;;;;;-2.10;99.90;;;-3.17;86.89;97287.03;5002310;28;19925;-47
2022/03/04 05:32:19;;;;;;;;;;;-2.10;99.90;;;-3.11;86.82;97299.16;5002883;28;20003;-46
2022/03/04 05:34:45;;;;;;;;;;;-2.10;99.90;;;-3.13;86.74;97296.56;5002320;28;20007;-43
2022/03/04 05:37:10;;;;;;;;;;;-2.10;99.90;;;-3.16;87.19;97290.47;4995289;28;20290;-47
2022/03/04 05:39:36;;;;;;;;;;;-2.10;99.90;;;-3.10;86.89;97293.19;4995185;28;19925;-47
2022/03/04 05:42:01;;;;;;;;;;;-2.10;99.90;;;-3.12;86.90;97303.47;5001054;28;19925;-47
2022/03/04 05:44:27;;;;;;;;;;;-2.20;99.90;;;-3.16;86.47;97300.81;5004380;28;20513;-46
2022/03/04 05:46:53;;;;;;;;;;;-2.20;99.90;;;-3.22;85.54;97296.41;4998914;28;19921;-45
2022/03/04 05:49:18;;;;;;;;;;;-2.20;99.90;;;-3.14;85.54;97309.44;4995654;28;19921;-48
2022/03/04 05:51:44;;;;;;;;;;;-2.20;99.90;;;-3.15;85.86;97313.72;4998941;28;20371;-49
2022/03/04 05:54:10;;;;;;;;;;;-2.20;99.90;;;-3.19;86.17;97314.53;5003206;28;20363;-48
2022/03/04 05:56:35;;;;;;;;;;;-2.20;99.90;;;-3.19;86.60;97318.84;5009519;28;19949;-49
2022/03/04 05:59:01;;;;;;;;;;;-2.20;99.90;;;-3.18;87.20;97320.53;5000729;28;20011;-47
2022/03/04 06:01:26;;;;;;;;;;;-2.20;99.90;;;-3.16;87.36;97318.84;5007909;28;19922;-49
2022/03/04 06:03:52;;;;;;;;;;;-2.10;99.90;;;-3.18;87.02;97318.81;5006477;28;19968;-48
2022/03/04 06:06:19;;;;;;;;;;;-2.20;99.90;;;-3.19;86.65;97324.00;5006608;28;19922;-49
2022/03/04 06:08:44;;;;;;;;;;;-2.20;99.90;;;-3.37;86.19;97297.06;5005784;28;19921;-46
2022/03/04 06:11:10;;;;;;;;;;;-2.20;99.90;;;-3.18;86.48;97328.28;5004094;28;19924;-47
2022/03/04 06:13:36;;;;;;;;;;;-2.20;99.90;;;-3.18;86.61;97331.72;5008327;28;19960;-47
2022/03/04 06:16:03;;;;;;;;;;;-2.20;99.90;;;-3.16;86.58;97329.19;5005314;28;19921;-48
2022/03/04 06:18:29;;;;;;;;;;;-2.20;99.90;;;-3.14;86.19;97327.47;5007761;28;19920;-48
2022/03/04 06:20:54;;;;;;;;;;;-2.20;99.90;;;-3.04;85.49;97331.09;5005226;28;19975;-47
2022/03/04 06:23:21;;;;;;;;;;;-2.10;99.90;;;-3.01;85.62;97338.88;5003896;28;19949;-44
2022/03/04 06:25:47;;;;;;;;;;;-2.10;99.90;;;-3.02;85.89;97332.84;5004151;28;19928;-44
2022/03/04 06:28:12;;;;;;;;;;;-2.10;99.90;;;-2.98;85.56;97339.81;5004696;28;19920;-47
2022/03/04 06:30:38;;;;;;;;;;;-2.10;99.90;;;-2.94;84.98;97345.88;5004925;28;19918;-45
2022/03/04 06:35:53;;;;;;;;;;;-2.00;99.90;;;-2.95;85.57;97337.25;5005090;28;19921;-46
2022/03/04 06:38:19;;;;;;;;;;;-1.90;99.90;;;-2.88;85.97;97351.97;5007209;28;19928;-47
2022/03/04 06:40:45;;;;;;;;;;;-1.90;99.90;;;-2.91;86.32;97344.22;5006251;28;19963;-47
2022/03/04 06:43:10;;;;;;;;;;;-1.90;99.90;;;-2.83;86.17;97348.63;5000952;28;20303;-44
2022/03/04 06:45:38;;;;;;;;;;;-1.90;99.90;;;-2.80;86.08;97351.22;5000060;28;19928;-46
2022/03/04 06:48:07;;;;;;;;;;;-1.80;99.90;;;-2.74;85.37;97346.16;5003229;28;19925;-47
2022/03/04 06:50:33;;;;;;;;;;;-1.80;99.90;;;-2.65;85.83;97353.19;5005878;28;19913;-47
2022/03/04 06:52:58;;;;;;;;;;;-1.70;99.90;;;-2.69;85.55;97342.81;5003685;28;19913;-47
2022/03/04 06:55:24;;;;;;;;;;;-1.70;99.90;;;-2.59;85.30;97358.44;5013906;28;20401;-48
2022/03/04 06:57:51;;;;;;;;;;;-1.60;99.90;;;-2.54;84.95;97367.09;5008148;28;19917;-47
2022/03/04 07:00:17;;;;;;;;;;;-1.60;99.90;;;-2.47;84.92;97365.50;5004272;28;19921;-44
2022/03/04 07:02:43;;;;;;;;;;;-1.50;99.90;;;-2.47;85.28;97363.75;5011493;28;19998;-48
2022/03/04 07:05:09;;;;;;;;;;;-1.50;99.90;;;-2.43;84.37;97373.28;5008948;28;20016;-47
2022/03/04 07:07:35;;;;;;;;;;;-1.50;99.90;;;-2.35;83.45;97371.69;5011943;28;19914;-46
2022/03/04 07:10:01;;;;;;;;;;;-1.40;99.90;;;-2.34;83.56;97369.97;5011090;28;19940;-47
2022/03/04 07:12:27;;;;;;;;;;;-1.40;99.90;;;-2.27;83.17;97374.34;5013657;28;20306;-47
2022/03/04 07:14:52;;;;;;;;;;;-1.30;99.90;;;-2.19;82.83;97388.25;5010244;28;19952;-46
2022/03/04 07:17:18;;;;;;;;;;;-1.20;99.90;;;-2.15;83.29;97386.59;5011011;28;19921;-47
2022/03/04 07:19:44;;;;;;;;;;;-1.20;99.90;;;-2.08;83.23;97383.22;5007956;28;19967;-47
2022/03/04 07:22:09;;;;;;;;;;;-1.10;99.90;;;-2.03;83.12;97388.44;5010193;28;19914;-46
2022/03/04 07:24:35;;;;;;;;;;;-1.10;99.90;;;-2.06;82.85;97383.22;5009573;28;19921;-46
2022/03/04 07:27:01;;;;;;;;;;;-1.00;99.90;;;-2.07;82.47;97389.25;5008394;28;19920;-47
2022/03/04 07:29:27;;;;;;;;;;;-1.00;99.90;;;-2.05;81.77;97398.75;5007391;28;19928;-46
2022/03/04 07:31:55;;;;;;;;;;;-1.00;99.90;;;-1.99;81.14;97390.19;5006397;28;19968;-45
2022/03/04 07:34:24;;;;;;;;;;;-1.00;99.90;;;-1.85;80.51;97405.88;4999711;28;20323;-46
2022/03/04 07:36:51;;;;;;;;;;;-0.90;99.90;;;-1.95;79.40;97410.94;5008262;28;19943;-45
2022/03/04 07:39:17;;;;;;;;;;;-0.90;99.90;;;-1.85;79.90;97409.34;4997330;28;20603;-49
2022/03/04 07:41:42;;;;;;;;;;;-0.90;99.90;;;-1.81;79.92;97413.72;5002856;28;19924;-50
2022/03/04 07:44:10;;;;;;;;;;;-0.80;99.90;;;-1.83;79.45;97404.19;5008412;28;19922;-50
2022/03/04 07:46:36;;;;;;;;;;;-0.80;99.90;;;-1.76;79.02;97403.41;5007421;28;20370;-49
2022/03/04 07:49:03;;;;;;;;;;;-0.80;99.90;;;-1.74;79.31;97405.19;5001555;28;19917;-46
2022/03/04 07:51:29;;;;;;;;;;;-0.70;99.90;;;-1.73;79.18;97406.03;5006152;28;19960;-47
2022/03/04 07:53:55;;;;;;;;;;;-0.70;99.90;;;-1.66;78.97;97397.50;5008428;28;19919;-47
2022/03/04 07:56:20;;;;;;;;;;;-0.60;99.90;;;-1.58;78.94;97411.41;5004499;28;19921;-47
2022/03/04 07:58:46;;;;;;;;;;;-0.60;99.90;;;-1.54;78.89;97401.94;5009238;28;20006;-48
2022/03/04 08:01:11;;;;;;;;;;;-0.50;99.90;;;-1.44;78.17;97400.31;5009620;28;19960;-46
2022/03/04 08:03:37;;;;;;;;;;;-0.40;99.90;;;-1.39;78.05;97401.22;5005938;28;19921;-47
2022/03/04 08:06:03;;;;;;;;;;;-0.40;99.90;;;-1.30;78.00;97409.09;4998297;28;20108;-48
2022/03/04 08:08:28;;;;;;;;;;;-0.30;99.90;;;-1.16;77.82;97414.41;4995500;28;19921;-47
2022/03/04 08:10:54;;;;;;;;;;;-0.20;99.90;;;-1.19;78.06;97410.06;4996939;28;19976;-46
2022/03/04 08:13:20;;;;;;;;;;;-0.20;99.90;;;-1.05;77.63;97412.78;5007176;28;19998;-46
2022/03/04 08:15:46;;;;;;;;;;;-0.10;99.90;;;-0.89;75.89;97418.97;5002722;28;20090;-49
2022/03/04 08:18:11;;;;;;;;;;;0.00;99.90;;;-0.72;74.40;97419.09;5009061;28;20413;-50
2022/03/04 08:20:38;;;;;;;;;;;0.20;99.90;;;-0.55;74.15;97421.81;5003629;28;19917;-49
2022/03/04 08:23:03;;;;;;;;;;;0.30;99.90;;;-0.45;74.09;97418.44;5009200;28;20036;-48
2022/03/04 08:25:29;;;;;;;;;;;0.50;99.90;;;-0.37;74.08;97415.91;4988981;28;20423;-49
2022/03/04 08:27:55;;;;;;;;;;;0.60;99.90;;;-0.31;74.64;97410.75;5008918;28;19951;-47
2022/03/04 08:30:20;;;;;;;;;;;0.70;99.90;;;-0.15;73.73;97414.28;5009940;28;19916;-47
2022/03/04 08:32:46;;;;;;;;;;;0.70;99.90;;;0.07;71.01;97415.28;5008368;28;20007;-47
2022/03/04 08:35:11;;;;;;;;;;;0.90;99.90;;;0.23;70.00;97412.75;4998998;28;19921;-47
2022/03/04 08:37:37;;;;;;;;;;;1.00;99.90;;;0.30;69.99;97417.97;5009263;28;20342;-45
2022/03/04 08:40:05;;;;;;;;;;;1.10;99.90;;;0.32;70.57;97424.03;5010474;28;20969;-46
2022/03/04 08:42:31;;;;;;;;;;;1.20;99.90;;;0.44;69.54;97420.63;4998760;28;19927;-48
2022/03/04 08:44:56;;;;;;;;;;;1.30;99.90;;;0.56;69.17;97418.06;5004670;28;19917;-47
2022/03/04 08:47:22;;;;;;;;;;;1.40;99.90;;;0.78;66.76;97425.91;4999566;28;19967;-47
2022/03/04 08:49:48;;;;;;;;;;;1.60;99.90;;;0.85;66.18;97425.06;5006854;28;19928;-43
2022/03/04 08:52:14;;;;;;;;;;;1.70;99.90;;;0.95;65.57;97434.59;5010989;28;19912;-46
2022/03/04 08:54:39;;;;;;;;;;;1.80;99.90;;;1.06;65.27;97431.13;5006633;28;19925;-45
2022/03/04 08:57:05;;;;;;;;;;;1.90;99.90;;;1.14;64.65;97429.41;5004040;28;20313;-44
2022/03/04 08:59:33;;;;;;;;;;;2.00;99.90;;;1.25;64.86;97432.03;5004216;28;19917;-47
2022/03/04 09:01:59;;;;;;;;;;;2.10;99.90;;;1.28;64.22;97426.84;4998655;28;19979;-47
2022/03/04 09:04:25;;;;;;;;;;;2.20;99.90;;;1.48;63.01;97435.47;5004835;28;20754;-48
2022/03/04 09:06:50;;;;;;;;;;;2.30;99.90;;;1.65;61.98;97432.88;4997158;28;20872;-44
2022/03/04 09:09:16;;;;;;;;;;;2.40;99.90;;;1.75;61.07;97438.94;5002267;28;19922;-48
2022/03/04 09:11:42;;;;;;;;;;;2.50;99.90;;;1.83;60.51;97432.00;5002258;28;19956;-47
2022/03/04 09:14:08;;;;;;;;;;;2.60;99.90;;;1.81;61.02;97428.53;5005867;28;20342;-46
2022/03/04 09:16:34;;;;;;;;;;;2.60;99.90;;;1.89;58.45;97424.16;4998684;28;20379;-44
2022/03/04 09:18:59;;;;;;;;;;;2.70;99.30;;;1.91;59.17;97424.16;4995253;28;19928;-46
2022/03/04 09:21:26;;;;;;;;;;;2.70;99.50;;;1.75;58.85;97380.88;4999667;28;20216;-46
2022/03/04 09:23:52;;;;;;;;;;;2.80;99.50;;;2.02;59.02;97422.41;4999215;28;19932;-46
2022/03/04 09:26:18;;;;;;;;;;;2.80;99.40;;;1.99;59.36;97421.53;5011019;28;19963;-45
2022/03/04 09:28:44;;;;;;;;;;;2.80;99.40;;;2.12;58.80;97412.84;5008436;28;19917;-46
2022/03/04 09:31:09;;;;;;;;;;;2.90;99.40;;;2.31;57.79;97421.44;5003029;28;20376;-46
2022/03/04 09:33:35;;;;;;;;;;;3.00;98.80;;;2.42;57.74;97418.78;5007081;28;19921;-46
2022/03/04 09:36:02;;;;;;;;;;;3.10;98.90;;;2.56;57.95;97422.19;5006297;28;19937;-47
2022/03/04 09:38:27;;;;;;;;;;;3.30;98.90;;;2.68;57.53;97429.09;5004226;28;19917;-46
2022/03/04 09:40:53;;;;;;;;;;;3.40;98.70;;;2.71;57.20;97434.28;5000021;28;20347;-46
2022/03/04 09:43:19;;;;;;;;;;;3.50;98.50;;;2.73;56.76;97429.94;5007591;28;19944;-46
2022/03/04 09:45:45;;;;;;;;;;;3.50;98.20;;;2.78;56.79;97441.19;4990571;28;20272;-46
2022/03/04 09:48:11;;;;;;;;;;;3.50;98.10;;;2.71;57.12;97434.28;4991646;28;20324;-46
2022/03/04 09:50:38;;;;;;;;;;;3.50;98.10;;;2.70;56.82;97437.75;5010633;28;19964;-46
2022/03/04 09:53:09;;;;;;;;;;;3.50;97.90;;;2.83;56.78;97438.56;5011158;28;19917;-44
2022/03/04 09:55:34;;;;;;;;;;;3.50;98.10;;;2.97;54.66;97436.72;5011834;28;19917;-45
2022/03/04 09:58:00;;;;;;;;;;;3.70;96.90;;;2.97;53.82;97441.09;5010726;28;19927;-45
2022/03/04 10:00:28;;;;;;;;;;;3.70;96.40;;;2.95;53.07;97438.47;5011641;28;19956;-45
2022/03/04 10:02:54;;;;;;;;;;;3.70;95.70;;;3.04;53.44;97437.56;5010682;28;20345;-45
2022/03/04 10:05:21;;;;;;;;;;;3.80;95.90;;;3.23;52.30;97439.16;5010789;28;19917;-44
2022/03/04 10:07:49;;;;;;;;;;;3.90;95.40;;;3.21;52.21;97435.72;5008642;28;19921;-46
2022/03/04 10:10:21;;;;;;;;;;;3.90;94.90;;;3.27;52.43;97434.81;5011357;28;20299;-46
2022/03/04 10:12:48;;;;;;;;;;;4.00;95.10;;;3.31;52.03;97431.28;5011843;28;19925;-46
2022/03/04 10:15:14;;;;;;;;;;;4.10;95.00;;;3.25;52.23;97428.75;5009970;28;19960;-46
2022/03/04 10:17:39;;;;;;;;;;;4.10;94.80;;;3.47;52.36;97434.66;5009828;28;19971;-47
2022/03/04 10:20:12;;;;;;;;;;;4.20;95.00;;;3.46;52.48;97440.72;5009981;28;20183;-47
2022/03/04 10:22:45;;;;;;;;;;;4.20;95.10;;;3.36;50.47;97432.13;5009224;28;20032;-47
2022/03/04 10:25:37;;;;;;;;;;;4.20;94.20;;;3.43;50.40;97438.16;5009821;28;20401;-47
2022/03/04 10:28:10;;;;;;;;;;;4.20;93.50;;;3.42;50.70;97421.63;4991972;28;20002;-46
2022/03/04 10:30:36;;;;;;;;;;;4.20;93.50;;;3.53;49.95;97434.56;5010440;28;20143;-46
2022/03/04 10:33:09;;;;;;;;;;;4.20;93.20;;;3.50;50.23;97434.63;5009715;28;20196;-46
2022/03/04 10:35:35;;;;;;;;;;;4.30;93.20;;;3.48;49.62;97438.09;5009731;28;20430;-46
2022/03/04 10:38:04;;;;;;;;;;;4.20;92.80;;;3.28;49.40;97415.66;5012220;28;19925;-47
2022/03/04 10:40:43;;;;;;;;;;;4.20;92.40;;;3.31;48.64;97420.00;5015991;28;20077;-45
2022/03/04 10:43:10;;;;;;;;;;;4.20;92.10;;;3.44;49.61;97426.84;5012872;28;19916;-47
2022/03/04 10:45:35;;;;;;;;;;;4.20;92.40;;;3.55;48.90;97430.25;5014352;28;19928;-45
2022/03/04 10:48:07;;;;;;;;;;;4.30;92.20;;;3.60;48.74;97417.16;5013482;28;20293;-43
2022/03/04 10:51:04;;;;;;;;;;;4.30;92.00;;;3.63;50.02;97419.72;5011039;28;20521;-46
2022/03/04 10:53:32;;;;;;;;;;;4.40;92.50;;;3.66;49.50;97421.44;5012403;28;19913;-46
2022/03/04 10:56:04;;;;;;;;;;;4.40;92.40;;;3.72;48.41;97418.78;5011139;28;19925;-45
2022/03/04 10:58:36;;;;;;;;;;;4.50;91.70;;;3.68;47.93;97414.47;5013731;28;19921;-45
2022/03/04 11:01:12;;;;;;;;;;;4.40;91.30;;;3.73;48.79;97420.50;5013906;28;19920;-49
2022/03/04 11:03:41;;;;;;;;;;;4.50;91.70;;;4.05;46.68;97419.31;5015344;28;19924;-44
2022/03/04 11:06:09;;;;;;;;;;;4.60;90.60;;;3.95;47.02;97406.38;5011302;28;20370;-48
2022/03/04 11:08:35;;;;;;;;;;;4.70;90.40;;;3.87;47.86;97402.97;5018485;23;19921;-80
2022/03/04 11:11:02;;;;;;;;;;;4.70;90.60;;;3.95;46.88;97395.09;5008238;28;19917;-80
2022/03/04 11:13:30;;;;;;;;;;;4.70;90.20;;;4.14;45.66;97400.94;4989227;28;20321;-80
2022/03/04 11:15:56;;;;;;;;;;;4.80;90.00;;;4.26;46.12;97403.41;4989033;28;19913;-80
2022/03/04 11:18:22;;;;;;;;;;;4.90;89.40;;;4.38;45.62;97405.88;5010397;28;20379;-80
2022/03/04 11:20:52;;;;;;;;;;;5.10;88.20;;;4.45;44.12;97404.06;4984816;28;20574;-79